sensor_id;sensor_type;location;lat;lon;timestamp;pressure;altitude;pressure_sealevel;temperature;humidity
59767;BME280;46248;58.364;25.582;2022-12-08T00:00:22;99054.34;;;-5.19;92.30
59767;BME280;46248;58.364;25.582;2022-12-08T00:03:48;99057.69;;;-5.14;92.15
59767;BME280;46248;58.364;25.582;2022-12-08T00:07:10;99054.31;;;-5.16;92.21
59767;BME280;46248;58.364;25.582;2022-12-08T00:10:50;99051.69;;;-5.12;92.28
59767;BME280;46248;58.364;25.582;2022-12-08T00:14:12;99049.09;;;-5.09;92.21
59767;BME280;46248;58.364;25.582;2022-12-08T00:17:34;99052.53;;;-5.08;92.04
59767;BME280;46248;58.364;25.582;2022-12-08T00:20:58;99049.94;;;-5.07;91.69
59767;BME280;46248;58.364;25.582;2022-12-08T00:24:20;99050.78;;;-5.06;92.04
59767;BME280;46248;58.364;25.582;2022-12-08T00:27:42;99052.44;;;-5.03;92.17
59767;BME280;46248;58.364;25.582;2022-12-08T00:31:08;99037.13;;;-5.02;92.28
59767;BME280;46248;58.364;25.582;2022-12-08T00:34:32;99049.03;;;-5.01;92.13
59767;BME280;46248;58.364;25.582;2022-12-08T00:37:55;99032.84;;;-4.98;91.73
59767;BME280;46248;58.364;25.582;2022-12-08T00:41:22;99029.44;;;-5.00;92.46
59767;BME280;46248;58.364;25.582;2022-12-08T00:45:05;99024.34;;;-4.99;92.34
59767;BME280;46248;58.364;25.582;2022-12-08T00:48:27;99035.34;;;-4.95;91.88
59767;BME280;46248;58.364;25.582;2022-12-08T00:51:49;99041.25;;;-4.92;92.21
59767;BME280;46248;58.364;25.582;2022-12-08T00:55:12;99029.41;;;-4.96;92.01
59767;BME280;46248;58.364;25.582;2022-12-08T00:58:34;99032.72;;;-4.89;91.87
59767;BME280;46248;58.364;25.582;2022-12-08T01:01:55;99028.41;;;-4.87;91.94
59767;BME280;46248;58.364;25.582;2022-12-08T01:05:17;99022.47;;;-4.86;92.13
59767;BME280;46248;58.364;25.582;2022-12-08T01:08:40;99033.47;;;-4.82;92.33
59767;BME280;46248;58.364;25.582;2022-12-08T01:12:04;99030.03;;;-4.81;92.34
59767;BME280;46248;58.364;25.582;2022-12-08T01:15:26;99030.03;;;-4.80;92.27
59767;BME280;46248;58.364;25.582;2022-12-08T01:18:48;99030.03;;;-4.80;92.28
59767;BME280;46248;58.364;25.582;2022-12-08T01:22:10;99032.59;;;-4.80;92.29
59767;BME280;46248;58.364;25.582;2022-12-08T01:25:33;99027.50;;;-4.81;93.04
59767;BME280;46248;58.364;25.582;2022-12-08T01:28:57;99020.66;;;-4.78;92.97
59767;BME280;46248;58.364;25.582;2022-12-08T01:32:20;99026.53;;;-4.73;93.28
59767;BME280;46248;58.364;25.582;2022-12-08T01:35:42;99016.31;;;-4.73;93.31
59767;BME280;46248;58.364;25.582;2022-12-08T01:39:04;99018.84;;;-4.70;93.50
59767;BME280;46248;58.364;25.582;2022-12-08T01:42:27;99004.38;;;-4.72;93.22
59767;BME280;46248;58.364;25.582;2022-12-08T01:45:50;99014.53;;;-4.66;93.58
59767;BME280;46248;58.364;25.582;2022-12-08T01:49:15;99011.13;;;-4.65;93.55
59767;BME280;46248;58.364;25.582;2022-12-08T01:52:39;99012.75;;;-4.61;93.21
59767;BME280;46248;58.364;25.582;2022-12-08T01:56:05;99005.13;;;-4.63;93.35
59767;BME280;46248;58.364;25.582;2022-12-08T01:59:29;99006.75;;;-4.58;93.37
59767;BME280;46248;58.364;25.582;2022-12-08T02:02:57;99009.28;;;-4.57;93.94
59767;BME280;46248;58.364;25.582;2022-12-08T02:06:19;99000.81;;;-4.59;93.83
59767;BME280;46248;58.364;25.582;2022-12-08T02:09:42;99008.41;;;-4.54;93.89
59767;BME280;46248;58.364;25.582;2022-12-08T02:13:06;99003.25;;;-4.51;94.11
59767;BME280;46248;58.364;25.582;2022-12-08T02:16:37;98977.09;;;-4.67;93.88
59767;BME280;46248;58.364;25.582;2022-12-08T02:24:21;98996.31;;;-4.43;93.98
59767;BME280;46248;58.364;25.582;2022-12-08T02:27:50;99003.09;;;-4.41;94.00
59767;BME280;46248;58.364;25.582;2022-12-08T02:31:28;98987.81;;;-4.44;94.21
59767;BME280;46248;58.364;25.582;2022-12-08T02:34:58;98990.28;;;-4.38;94.44
59767;BME280;46248;58.364;25.582;2022-12-08T02:38:33;98991.97;;;-4.37;94.65
59767;BME280;46248;58.364;25.582;2022-12-08T02:42:04;98982.53;;;-4.33;94.35
59767;BME280;46248;58.364;25.582;2022-12-08T02:45:32;98986.75;;;-4.30;94.73
59767;BME280;46248;58.364;25.582;2022-12-08T02:48:55;98985.91;;;-4.29;94.90
59767;BME280;46248;58.364;25.582;2022-12-08T02:52:42;98974.72;;;-4.24;94.69
59767;BME280;46248;58.364;25.582;2022-12-08T02:56:15;98978.97;;;-4.23;94.44
59767;BME280;46248;58.364;25.582;2022-12-08T02:59:55;98969.53;;;-4.19;95.08
59767;BME280;46248;58.364;25.582;2022-12-08T03:03:27;98980.59;;;-4.19;94.88
59767;BME280;46248;58.364;25.582;2022-12-08T03:06:58;98978.78;;;-4.12;94.73
59767;BME280;46248;58.364;25.582;2022-12-08T03:10:30;98980.44;;;-4.08;95.09
59767;BME280;46248;58.364;25.582;2022-12-08T03:13:55;98976.13;;;-4.06;94.98
59767;BME280;46248;58.364;25.582;2022-12-08T03:17:20;98972.72;;;-4.05;95.19
59767;BME280;46248;58.364;25.582;2022-12-08T03:20:44;98981.97;;;-3.98;95.25
59767;BME280;46248;58.364;25.582;2022-12-08T03:24:08;98981.91;;;-3.95;95.86
59767;BME280;46248;58.364;25.582;2022-12-08T03:27:32;98978.47;;;-3.92;95.75
59767;BME280;46248;58.364;25.582;2022-12-08T03:30:56;98972.50;;;-3.93;95.63
59767;BME280;46248;58.364;25.582;2022-12-08T03:34:20;98981.69;;;-3.82;95.86
59767;BME280;46248;58.364;25.582;2022-12-08T03:37:44;98973.97;;;-3.79;95.70
59767;BME280;46248;58.364;25.582;2022-12-08T03:41:06;98976.56;;;-3.82;95.89
59767;BME280;46248;58.364;25.582;2022-12-08T03:44:41;98970.47;;;-3.74;95.85
59767;BME280;46248;58.364;25.582;2022-12-08T03:48:03;98981.41;;;-3.65;95.87
59767;BME280;46248;58.364;25.582;2022-12-08T03:51:25;98966.13;;;-3.69;96.28
59767;BME280;46248;58.364;25.582;2022-12-08T03:54:47;98982.91;;;-3.55;96.62
59767;BME280;46248;58.364;25.582;2022-12-08T03:58:10;98981.97;;;-3.50;96.71
59767;BME280;46248;58.364;25.582;2022-12-08T04:01:33;98979.34;;;-3.47;96.37
59767;BME280;46248;58.364;25.582;2022-12-08T04:04:55;98969.88;;;-3.41;96.84
59767;BME280;46248;58.364;25.582;2022-12-08T04:08:17;98975.69;;;-3.35;96.99
59767;BME280;46248;58.364;25.582;2022-12-08T04:11:39;98974.75;;;-3.29;96.92
59767;BME280;46248;58.364;25.582;2022-12-08T04:15:01;98971.22;;;-3.24;97.06
59767;BME280;46248;58.364;25.582;2022-12-08T04:18:24;98970.22;;;-3.18;97.16
59767;BME280;46248;58.364;25.582;2022-12-08T04:21:46;98965.88;;;-3.13;97.22
59767;BME280;46248;58.364;25.582;2022-12-08T04:25:08;98962.34;;;-3.09;97.45
59767;BME280;46248;58.364;25.582;2022-12-08T04:28:31;98948.63;;;-3.05;97.33
59767;BME280;46248;58.364;25.582;2022-12-08T04:31:53;98949.41;;;-3.01;97.51
59767;BME280;46248;58.364;25.582;2022-12-08T04:35:16;98952.66;;;-2.94;97.37
59767;BME280;46248;58.364;25.582;2022-12-08T04:38:38;98951.75;;;-2.90;97.42
59767;BME280;46248;58.364;25.582;2022-12-08T04:42:00;98945.66;;;-2.86;97.55
59767;BME280;46248;58.364;25.582;2022-12-08T04:45:22;98943.00;;;-2.82;97.78
59767;BME280;46248;58.364;25.582;2022-12-08T04:48:44;98953.09;;;-2.76;97.82
59767;BME280;46248;58.364;25.582;2022-12-08T04:52:07;98936.81;;;-2.73;97.64
59767;BME280;46248;58.364;25.582;2022-12-08T04:55:29;98934.31;;;-2.74;97.39
59767;BME280;46248;58.364;25.582;2022-12-08T04:58:51;98949.44;;;-2.64;97.50
59767;BME280;46248;58.364;25.582;2022-12-08T05:02:16;98947.69;;;-2.62;97.43
59767;BME280;46248;58.364;25.582;2022-12-08T05:05:38;98949.34;;;-2.59;97.23
59767;BME280;46248;58.364;25.582;2022-12-08T05:09:02;98956.88;;;-2.53;97.59
59767;BME280;46248;58.364;25.582;2022-12-08T05:12:24;98955.13;;;-2.51;97.34
59767;BME280;46248;58.364;25.582;2022-12-08T05:15:46;98961.03;;;-2.47;97.27
59767;BME280;46248;58.364;25.582;2022-12-08T05:19:08;98953.34;;;-2.49;97.56
59767;BME280;46248;58.364;25.582;2022-12-08T05:22:30;98962.56;;;-2.40;97.33
59767;BME280;46248;58.364;25.582;2022-12-08T05:25:53;98966.72;;;-2.36;97.86
59767;BME280;46248;58.364;25.582;2022-12-08T05:29:15;98956.47;;;-2.36;98.12
59767;BME280;46248;58.364;25.582;2022-12-08T05:32:37;98960.59;;;-2.29;97.76
59767;BME280;46248;58.364;25.582;2022-12-08T05:35:59;98963.00;;;-2.23;97.46
59767;BME280;46248;58.364;25.582;2022-12-08T05:39:24;98959.59;;;-2.23;97.51
59767;BME280;46248;58.364;25.582;2022-12-08T05:42:47;98958.63;;;-2.18;97.05
59767;BME280;46248;58.364;25.582;2022-12-08T05:46:09;98949.94;;;-2.14;96.76
59767;BME280;46248;58.364;25.582;2022-12-08T05:49:31;98954.19;;;-2.13;96.48
59767;BME280;46248;58.364;25.582;2022-12-08T05:52:53;98959.38;;;-2.14;96.30
59767;BME280;46248;58.364;25.582;2022-12-08T05:56:15;98961.03;;;-2.12;96.95
59767;BME280;46248;58.364;25.582;2022-12-08T05:59:41;98967.00;;;-2.11;96.41
59767;BME280;46248;58.364;25.582;2022-12-08T06:03:02;98955.19;;;-2.18;96.74
59767;BME280;46248;58.364;25.582;2022-12-08T06:06:25;98949.06;;;-2.13;96.75
59767;BME280;46248;58.364;25.582;2022-12-08T06:09:47;98959.28;;;-2.11;96.59
59767;BME280;46248;58.364;25.582;2022-12-08T06:13:10;98962.66;;;-2.09;96.42
59767;BME280;46248;58.364;25.582;2022-12-08T06:16:37;98968.66;;;-2.10;96.67
59767;BME280;46248;58.364;25.582;2022-12-08T06:19:58;98972.81;;;-2.06;96.90
59767;BME280;46248;58.364;25.582;2022-12-08T06:23:20;98967.75;;;-2.08;97.28
59767;BME280;46248;58.364;25.582;2022-12-08T06:26:42;98965.13;;;-2.04;97.15
59767;BME280;46248;58.364;25.582;2022-12-08T06:30:08;98971.06;;;-2.04;96.93
59767;BME280;46248;58.364;25.582;2022-12-08T06:33:32;98975.25;;;-2.00;97.02
59767;BME280;46248;58.364;25.582;2022-12-08T06:36:53;98973.41;;;-1.95;97.50
59767;BME280;46248;58.364;25.582;2022-12-08T06:40:16;98970.84;;;-1.95;96.78
59767;BME280;46248;58.364;25.582;2022-12-08T06:43:38;98971.75;;;-1.96;96.59
59767;BME280;46248;58.364;25.582;2022-12-08T06:47:00;98969.03;;;-1.91;96.65
59767;BME280;46248;58.364;25.582;2022-12-08T06:50:24;98972.41;;;-1.89;96.16
59767;BME280;46248;58.364;25.582;2022-12-08T06:53:45;98969.78;;;-1.86;96.51
59767;BME280;46248;58.364;25.582;2022-12-08T06:57:08;98963.00;;;-1.89;96.48
59767;BME280;46248;58.364;25.582;2022-12-08T07:00:30;98965.47;;;-1.84;96.10
59767;BME280;46248;58.364;25.582;2022-12-08T07:03:52;98972.16;;;-1.78;96.56
59767;BME280;46248;58.364;25.582;2022-12-08T07:07:15;98961.00;;;-1.77;96.86
59767;BME280;46248;58.364;25.582;2022-12-08T07:10:37;98970.22;;;-1.70;96.40
59767;BME280;46248;58.364;25.582;2022-12-08T07:13:59;98969.38;;;-1.71;96.81
59767;BME280;46248;58.364;25.582;2022-12-08T07:17:21;98974.34;;;-1.65;96.32
59767;BME280;46248;58.364;25.582;2022-12-08T07:20:43;98967.56;;;-1.67;96.49
59767;BME280;46248;58.364;25.582;2022-12-08T07:24:07;98976.75;;;-1.58;96.48
59767;BME280;46248;58.364;25.582;2022-12-08T07:27:29;98978.31;;;-1.53;96.76
59767;BME280;46248;58.364;25.582;2022-12-08T07:30:50;98968.97;;;-1.55;96.21
59767;BME280;46248;58.364;25.582;2022-12-08T07:34:12;98976.41;;;-1.46;95.88
59767;BME280;46248;58.364;25.582;2022-12-08T07:37:35;98975.41;;;-1.41;95.90
59767;BME280;46248;58.364;25.582;2022-12-08T07:40:59;98960.75;;;-1.37;96.26
59767;BME280;46248;58.364;25.582;2022-12-08T07:44:21;98974.19;;;-1.27;96.18
59767;BME280;46248;58.364;25.582;2022-12-08T07:47:43;98971.41;;;-1.20;95.63
59767;BME280;46248;58.364;25.582;2022-12-08T07:51:05;98978.03;;;-1.12;95.48
59767;BME280;46248;58.364;25.582;2022-12-08T07:54:27;98966.94;;;-1.13;94.92
59767;BME280;46248;58.364;25.582;2022-12-08T07:57:51;98972.72;;;-1.06;94.84
59767;BME280;46248;58.364;25.582;2022-12-08T08:01:21;98970.31;;;-1.11;94.75
59767;BME280;46248;58.364;25.582;2022-12-08T08:04:43;98965.97;;;-1.09;94.79
59767;BME280;46248;58.364;25.582;2022-12-08T08:08:06;98970.88;;;-1.01;94.74
59767;BME280;46248;58.364;25.582;2022-12-08T08:11:28;98970.94;;;-1.03;94.24
59767;BME280;46248;58.364;25.582;2022-12-08T08:14:54;98970.06;;;-1.03;94.66
59767;BME280;46248;58.364;25.582;2022-12-08T08:18:15;98961.53;;;-1.04;94.81
59767;BME280;46248;58.364;25.582;2022-12-08T08:21:37;98969.06;;;-0.98;94.83
59767;BME280;46248;58.364;25.582;2022-12-08T08:25:07;98962.97;;;-0.94;94.78
59767;BME280;46248;58.364;25.582;2022-12-08T08:28:29;98968.03;;;-0.92;94.33
59767;BME280;46248;58.364;25.582;2022-12-08T08:31:53;98963.66;;;-0.88;94.42
59767;BME280;46248;58.364;25.582;2022-12-08T08:35:15;98945.72;;;-0.90;94.51
59767;BME280;46248;58.364;25.582;2022-12-08T08:38:37;98961.81;;;-0.85;94.69
59767;BME280;46248;58.364;25.582;2022-12-08T08:41:59;98957.47;;;-0.81;94.56
59767;BME280;46248;58.364;25.582;2022-12-08T08:45:21;98953.09;;;-0.79;94.55
59767;BME280;46248;58.364;25.582;2022-12-08T08:48:44;98954.75;;;-0.77;94.15
59767;BME280;46248;58.364;25.582;2022-12-08T08:52:06;98941.94;;;-0.78;94.38
59767;BME280;46248;58.364;25.582;2022-12-08T08:55:28;98957.13;;;-0.71;94.31
59767;BME280;46248;58.364;25.582;2022-12-08T08:58:52;98948.53;;;-0.70;94.60
59767;BME280;46248;58.364;25.582;2022-12-08T09:02:15;98955.09;;;-0.61;94.64
59767;BME280;46248;58.364;25.582;2022-12-08T09:05:38;98962.72;;;-0.58;94.49
59767;BME280;46248;58.364;25.582;2022-12-08T09:09:01;98957.47;;;-0.55;94.63
59767;BME280;46248;58.364;25.582;2022-12-08T09:12:23;98954.81;;;-0.52;94.58
59767;BME280;46248;58.364;25.582;2022-12-08T09:15:45;98948.16;;;-0.57;94.77
59767;BME280;46248;58.364;25.582;2022-12-08T09:19:07;98952.25;;;-0.52;94.05
59767;BME280;46248;58.364;25.582;2022-12-08T09:22:33;98953.22;;;-0.54;94.29
59767;BME280;46248;58.364;25.582;2022-12-08T09:25:55;98947.09;;;-0.52;94.57
59767;BME280;46248;58.364;25.582;2022-12-08T09:29:17;98943.69;;;-0.52;94.48
59767;BME280;46248;58.364;25.582;2022-12-08T09:32:39;98947.91;;;-0.50;94.18
59767;BME280;46248;58.364;25.582;2022-12-08T09:36:02;98933.47;;;-0.54;94.87
59767;BME280;46248;58.364;25.582;2022-12-08T09:39:25;98939.28;;;-0.49;94.98
59767;BME280;46248;58.364;25.582;2022-12-08T09:42:50;98939.88;;;-0.39;95.13
59767;BME280;46248;58.364;25.582;2022-12-08T09:46:14;98945.75;;;-0.35;94.88
59767;BME280;46248;58.364;25.582;2022-12-08T09:49:41;98942.25;;;-0.33;94.78
59767;BME280;46248;58.364;25.582;2022-12-08T09:53:11;98943.91;;;-0.32;95.11
59767;BME280;46248;58.364;25.582;2022-12-08T09:56:36;98944.00;;;-0.35;94.70
59767;BME280;46248;58.364;25.582;2022-12-08T10:00:01;98935.41;;;-0.34;94.99
59767;BME280;46248;58.364;25.582;2022-12-08T10:03:28;98943.19;;;-0.35;94.92
59767;BME280;46248;58.364;25.582;2022-12-08T10:06:58;98941.53;;;-0.38;95.03
59767;BME280;46248;58.364;25.582;2022-12-08T10:10:28;98945.94;;;-0.41;94.87
59767;BME280;46248;58.364;25.582;2022-12-08T10:13:59;98948.63;;;-0.44;95.20
59767;BME280;46248;58.364;25.582;2022-12-08T10:17:26;98944.41;;;-0.47;95.56
59767;BME280;46248;58.364;25.582;2022-12-08T10:20:50;98940.16;;;-0.48;95.78
59767;BME280;46248;58.364;25.582;2022-12-08T10:24:18;98950.28;;;-0.43;95.90
59767;BME280;46248;58.364;25.582;2022-12-08T10:27:45;98952.66;;;-0.37;96.71
59767;BME280;46248;58.364;25.582;2022-12-08T10:38:59;98960.25;;;-0.33;95.51
59767;BME280;46248;58.364;25.582;2022-12-08T10:42:22;98961.91;;;-0.32;95.25
59767;BME280;46248;58.364;25.582;2022-12-08T10:45:44;98963.59;;;-0.31;95.69
59767;BME280;46248;58.364;25.582;2022-12-08T10:49:10;98960.16;;;-0.30;95.34
59767;BME280;46248;58.364;25.582;2022-12-08T10:52:37;98959.16;;;-0.26;95.69
59767;BME280;46248;58.364;25.582;2022-12-08T10:56:14;98965.88;;;-0.21;95.59
59767;BME280;46248;58.364;25.582;2022-12-08T10:59:40;98966.56;;;-0.16;95.84
59767;BME280;46248;58.364;25.582;2022-12-08T11:03:03;98966.56;;;-0.16;95.06
59767;BME280;46248;58.364;25.582;2022-12-08T11:06:30;98969.97;;;-0.16;95.82
59767;BME280;46248;58.364;25.582;2022-12-08T11:09:56;98969.94;;;-0.14;95.90
59767;BME280;46248;58.364;25.582;2022-12-08T11:13:21;98975.03;;;-0.13;96.03
59767;BME280;46248;58.364;25.582;2022-12-08T11:16:45;98980.91;;;-0.09;95.89
59767;BME280;46248;58.364;25.582;2022-12-08T11:20:20;98986.81;;;-0.06;95.61
59767;BME280;46248;58.364;25.582;2022-12-08T11:23:46;98983.53;;;-0.11;95.57
59767;BME280;46248;58.364;25.582;2022-12-08T11:27:09;98984.97;;;-0.02;96.17
59767;BME280;46248;58.364;25.582;2022-12-08T11:30:36;98992.59;;;0.01;95.55
59767;BME280;46248;58.364;25.582;2022-12-08T11:34:00;98997.88;;;-0.04;94.69
59767;BME280;46248;58.364;25.582;2022-12-08T11:37:25;99000.66;;;-0.10;95.16
59767;BME280;46248;58.364;25.582;2022-12-08T11:40:57;99005.13;;;-0.15;95.27
59767;BME280;46248;58.364;25.582;2022-12-08T11:44:28;99015.59;;;-0.21;95.32
59767;BME280;46248;58.364;25.582;2022-12-08T11:48:02;99031.72;;;-0.44;94.67
59767;BME280;46248;58.364;25.582;2022-12-08T11:51:29;99058.09;;;-0.67;93.12
59767;BME280;46248;58.364;25.582;2022-12-08T11:54:58;99062.44;;;-0.99;90.11
59767;BME280;46248;58.364;25.582;2022-12-08T11:58:25;99057.56;;;-1.41;89.72
59767;BME280;46248;58.364;25.582;2022-12-08T12:01:50;99080.25;;;-1.58;89.15
59767;BME280;46248;58.364;25.582;2022-12-08T12:05:24;99105.88;;;-1.92;90.68
59767;BME280;46248;58.364;25.582;2022-12-08T12:09:14;99119.28;;;-2.17;91.88
59767;BME280;46248;58.364;25.582;2022-12-08T12:12:51;99144.47;;;-2.37;92.22
59767;BME280;46248;58.364;25.582;2022-12-08T12:16:50;99147.34;;;-2.51;92.54
59767;BME280;46248;58.364;25.582;2022-12-08T12:20:20;99158.63;;;-2.60;92.63
59767;BME280;46248;58.364;25.582;2022-12-08T12:23:47;99176.09;;;-2.80;92.28
59767;BME280;46248;58.364;25.582;2022-12-08T12:27:22;99179.00;;;-3.00;94.22
59767;BME280;46248;58.364;25.582;2022-12-08T12:30:53;99196.28;;;-3.11;95.05
59767;BME280;46248;58.364;25.582;2022-12-08T12:34:24;99199.84;;;-3.20;95.61
59767;BME280;46248;58.364;25.582;2022-12-08T12:37:48;99224.84;;;-3.36;96.54
59767;BME280;46248;58.364;25.582;2022-12-08T12:41:12;99237.69;;;-3.40;97.01
59767;BME280;46248;58.364;25.582;2022-12-08T12:44:40;99242.84;;;-3.43;98.02
59767;BME280;46248;58.364;25.582;2022-12-08T12:48:22;99253.28;;;-3.57;97.70
59767;BME280;46248;58.364;25.582;2022-12-08T12:51:45;99263.47;;;-3.53;98.16
59767;BME280;46248;58.364;25.582;2022-12-08T12:55:28;99273.75;;;-3.56;98.09
59767;BME280;46248;58.364;25.582;2022-12-08T12:59:21;99284.84;;;-3.57;98.00
59767;BME280;46248;58.364;25.582;2022-12-08T13:02:45;99297.69;;;-3.60;97.99
59767;BME280;46248;58.364;25.582;2022-12-08T13:06:09;99304.53;;;-3.62;98.00
59767;BME280;46248;58.364;25.582;2022-12-08T13:09:36;99308.84;;;-3.65;97.91
59767;BME280;46248;58.364;25.582;2022-12-08T13:13:15;99314.03;;;-3.72;97.17
59767;BME280;46248;58.364;25.582;2022-12-08T13:16:38;99339.59;;;-3.70;96.79
59767;BME280;46248;58.364;25.582;2022-12-08T13:20:03;99355.84;;;-3.74;96.32
59767;BME280;46248;58.364;25.582;2022-12-08T13:23:41;99368.66;;;-3.79;96.13
59767;BME280;46248;58.364;25.582;2022-12-08T13:27:34;99356.84;;;-3.86;96.01
59767;BME280;46248;58.364;25.582;2022-12-08T13:30:58;99363.63;;;-3.85;96.21
59767;BME280;46248;58.364;25.582;2022-12-08T13:34:27;99369.63;;;-3.87;95.63
59767;BME280;46248;58.364;25.582;2022-12-08T13:37:52;99370.53;;;-3.90;95.57
59767;BME280;46248;58.364;25.582;2022-12-08T13:41:18;99377.41;;;-3.97;95.52
59767;BME280;46248;58.364;25.582;2022-12-08T13:44:45;99389.34;;;-3.96;95.69
59767;BME280;46248;58.364;25.582;2022-12-08T13:48:32;99399.59;;;-3.99;95.57
59767;BME280;46248;58.364;25.582;2022-12-08T13:52:29;99404.69;;;-3.96;96.16
59767;BME280;46248;58.364;25.582;2022-12-08T13:56:13;99415.75;;;-3.97;96.03
59767;BME280;46248;58.364;25.582;2022-12-08T13:59:59;99434.50;;;-3.95;95.98
59767;BME280;46248;58.364;25.582;2022-12-08T14:03:21;99450.69;;;-3.94;95.49
59767;BME280;46248;58.364;25.582;2022-12-08T14:06:47;99448.19;;;-3.99;95.32
59767;BME280;46248;58.364;25.582;2022-12-08T14:10:15;99459.28;;;-4.03;95.31
59767;BME280;46248;58.364;25.582;2022-12-08T14:13:39;99472.06;;;-4.03;94.88
59767;BME280;46248;58.364;25.582;2022-12-08T14:17:02;99478.91;;;-4.06;95.08
59767;BME280;46248;58.364;25.582;2022-12-08T14:20:30;99486.59;;;-4.09;94.95
59767;BME280;46248;58.364;25.582;2022-12-08T14:24:14;99486.63;;;-4.12;95.26
59767;BME280;46248;58.364;25.582;2022-12-08T14:27:36;99479.03;;;-4.17;95.20
59767;BME280;46248;58.364;25.582;2022-12-08T14:30:59;99486.69;;;-4.17;95.40
59767;BME280;46248;58.364;25.582;2022-12-08T14:34:21;99492.66;;;-4.20;95.44
59767;BME280;46248;58.364;25.582;2022-12-08T14:37:45;99496.06;;;-4.19;95.20
59767;BME280;46248;58.364;25.582;2022-12-08T14:41:10;99508.00;;;-4.21;95.14
59767;BME280;46248;58.364;25.582;2022-12-08T14:44:37;99514.84;;;-4.25;95.27
59767;BME280;46248;58.364;25.582;2022-12-08T14:48:21;99524.25;;;-4.28;94.99
59767;BME280;46248;58.364;25.582;2022-12-08T14:51:45;99527.69;;;-4.31;94.99
59767;BME280;46248;58.364;25.582;2022-12-08T14:55:07;99529.38;;;-4.33;95.09
59767;BME280;46248;58.364;25.582;2022-12-08T14:58:30;99537.94;;;-4.37;94.98
59767;BME280;46248;58.364;25.582;2022-12-08T15:02:11;99534.53;;;-4.39;95.47
59767;BME280;46248;58.364;25.582;2022-12-08T15:05:33;99528.66;;;-4.47;95.20
59767;BME280;46248;58.364;25.582;2022-12-08T15:08:57;99536.31;;;-4.47;95.07
59767;BME280;46248;58.364;25.582;2022-12-08T15:12:21;99548.22;;;-4.49;95.13
59767;BME280;46248;58.364;25.582;2022-12-08T15:15:50;99554.22;;;-4.52;95.75
59767;BME280;46248;58.364;25.582;2022-12-08T15:19:16;99571.25;;;-4.48;96.51
59767;BME280;46248;58.364;25.582;2022-12-08T15:22:42;99579.72;;;-4.46;96.02
59767;BME280;46248;58.364;25.582;2022-12-08T15:26:04;99584.84;;;-4.47;95.67
59767;BME280;46248;58.364;25.582;2022-12-08T15:29:28;99588.25;;;-4.48;95.88
59767;BME280;46248;58.364;25.582;2022-12-08T15:32:51;99582.34;;;-4.56;95.92
59767;BME280;46248;58.364;25.582;2022-12-08T15:36:15;99596.78;;;-4.51;95.93
59767;BME280;46248;58.364;25.582;2022-12-08T15:39:37;99601.88;;;-4.51;95.85
59767;BME280;46248;58.364;25.582;2022-12-08T15:42:59;99604.44;;;-4.48;96.84
59767;BME280;46248;58.364;25.582;2022-12-08T15:46:24;99601.03;;;-4.48;97.05
59767;BME280;46248;58.364;25.582;2022-12-08T15:49:48;99612.91;;;-4.35;97.39
59767;BME280;46248;58.364;25.582;2022-12-08T15:53:11;99628.19;;;-4.29;97.48
59767;BME280;46248;58.364;25.582;2022-12-08T15:56:36;99629.88;;;-4.23;97.68
59767;BME280;46248;58.364;25.582;2022-12-08T16:00:28;99631.53;;;-4.21;97.17
59767;BME280;46248;58.364;25.582;2022-12-08T16:04:13;99641.78;;;-4.22;96.92
59767;BME280;46248;58.364;25.582;2022-12-08T16:07:57;99644.34;;;-4.25;96.66
59767;BME280;46248;58.364;25.582;2022-12-08T16:11:30;99653.75;;;-4.29;96.26
59767;BME280;46248;58.364;25.582;2022-12-08T16:15:27;99655.50;;;-4.37;96.11
59767;BME280;46248;58.364;25.582;2022-12-08T16:19:12;99668.31;;;-4.42;95.84
59767;BME280;46248;58.364;25.582;2022-12-08T16:22:34;99671.72;;;-4.46;95.68
59767;BME280;46248;58.364;25.582;2022-12-08T16:26:19;99680.25;;;-4.57;95.62
59767;BME280;46248;58.364;25.582;2022-12-08T16:30:06;99689.66;;;-4.59;95.38
59767;BME280;46248;58.364;25.582;2022-12-08T16:33:28;99693.06;;;-4.62;95.81
59767;BME280;46248;58.364;25.582;2022-12-08T16:36:51;99684.56;;;-4.66;95.79
59767;BME280;46248;58.364;25.582;2022-12-08T16:40:13;99689.66;;;-4.70;96.06
59767;BME280;46248;58.364;25.582;2022-12-08T16:43:36;99703.28;;;-4.70;95.94
59767;BME280;46248;58.364;25.582;2022-12-08T16:47:01;99695.63;;;-4.73;95.87
59767;BME280;46248;58.364;25.582;2022-12-08T16:50:31;99705.00;;;-4.73;96.66
59767;BME280;46248;58.364;25.582;2022-12-08T16:53:53;99708.41;;;-4.73;96.43
59767;BME280;46248;58.364;25.582;2022-12-08T16:57:16;99713.50;;;-4.73;96.87
59767;BME280;46248;58.364;25.582;2022-12-08T17:00:40;99724.56;;;-4.72;96.36
59767;BME280;46248;58.364;25.582;2022-12-08T17:04:02;99723.75;;;-4.71;96.73
59767;BME280;46248;58.364;25.582;2022-12-08T17:07:46;99735.66;;;-4.70;97.11
59767;BME280;46248;58.364;25.582;2022-12-08T17:11:09;99729.69;;;-4.68;97.47
59767;BME280;46248;58.364;25.582;2022-12-08T17:14:40;99736.47;;;-4.67;97.05
59767;BME280;46248;58.364;25.582;2022-12-08T17:18:04;99731.41;;;-4.74;96.76
59767;BME280;46248;58.364;25.582;2022-12-08T17:21:26;99744.16;;;-4.68;96.62
59767;BME280;46248;58.364;25.582;2022-12-08T17:24:48;99739.88;;;-4.69;96.48
59767;BME280;46248;58.364;25.582;2022-12-08T17:28:10;99749.28;;;-4.73;96.61
59767;BME280;46248;58.364;25.582;2022-12-08T17:31:52;99758.66;;;-4.78;96.27
59767;BME280;46248;58.364;25.582;2022-12-08T17:35:17;99761.22;;;-4.78;96.39
59767;BME280;46248;58.364;25.582;2022-12-08T17:38:39;99773.09;;;-4.78;96.43
59767;BME280;46248;58.364;25.582;2022-12-08T17:42:01;99765.47;;;-4.83;96.81
59767;BME280;46248;58.364;25.582;2022-12-08T17:45:23;99780.78;;;-4.78;96.86
59767;BME280;46248;58.364;25.582;2022-12-08T17:48:45;99777.38;;;-4.80;97.35
59767;BME280;46248;58.364;25.582;2022-12-08T17:52:09;99774.84;;;-4.77;97.46
59767;BME280;46248;58.364;25.582;2022-12-08T17:55:32;99783.31;;;-4.75;97.34
59767;BME280;46248;58.364;25.582;2022-12-08T17:58:54;99788.44;;;-4.74;97.77
59767;BME280;46248;58.364;25.582;2022-12-08T18:02:16;99797.81;;;-4.74;98.10
59767;BME280;46248;58.364;25.582;2022-12-08T18:05:38;99799.50;;;-4.73;98.35
59767;BME280;46248;58.364;25.582;2022-12-08T18:09:03;99805.47;;;-4.73;97.95